createdAt,value
2022-09-06T00:00:03.927Z,10.85
2022-09-06T00:02:32.862Z,11.80
2022-09-06T00:05:00.529Z,11.45
2022-09-06T00:07:28.336Z,6.22
2022-09-06T00:09:57.771Z,6.03
2022-09-06T00:12:25.733Z,9.70
2022-09-06T00:14:53.398Z,8.25
2022-09-06T00:17:21.088Z,10.13
2022-09-06T00:19:48.766Z,7.88
2022-09-06T00:22:16.396Z,7.22
2022-09-06T00:24:44.102Z,9.18
2022-09-06T00:27:13.111Z,8.90
2022-09-06T00:29:40.749Z,7.18
2022-09-06T00:32:08.544Z,7.60
2022-09-06T00:34:36.288Z,10.57
2022-09-06T00:37:03.983Z,8.05
2022-09-06T00:39:31.675Z,9.80
2022-09-06T00:41:59.354Z,7.20
2022-09-06T00:44:28.420Z,8.55
2022-09-06T00:46:56.389Z,7.50
2022-09-06T00:49:27.027Z,9.85
2022-09-06T00:51:56.873Z,7.60
2022-09-06T00:54:24.677Z,11.00
2022-09-06T00:56:52.480Z,10.75
2022-09-06T00:59:20.166Z,7.32
2022-09-06T01:01:49.220Z,8.63
2022-09-06T01:04:16.980Z,8.02
2022-09-06T01:06:47.998Z,8.35
2022-09-06T01:09:24.630Z,10.90
2022-09-06T01:11:57.951Z,9.00
2022-09-06T01:14:31.278Z,7.15
2022-09-06T01:17:03.696Z,8.35
2022-09-06T01:19:46.101Z,8.30
2022-09-06T01:22:22.338Z,7.15
2022-09-06T01:25:03.177Z,8.68
2022-09-06T01:27:53.661Z,8.18
2022-09-06T01:30:21.720Z,8.43
2022-09-06T01:32:52.424Z,8.32
2022-09-06T01:35:25.168Z,6.75
2022-09-06T01:37:52.856Z,9.15
2022-09-06T01:40:20.993Z,7.50
2022-09-06T01:42:50.941Z,7.78
2022-09-06T01:45:20.246Z,6.82
2022-09-06T01:47:51.285Z,7.32
2022-09-06T01:50:43.043Z,7.65
2022-09-06T01:53:14.966Z,7.05
2022-09-06T01:55:45.807Z,8.18
2022-09-06T01:58:24.786Z,6.72
2022-09-06T02:00:57.631Z,10.50
2022-09-06T02:03:29.152Z,6.32
2022-09-06T02:05:58.254Z,6.45
2022-09-06T02:08:28.479Z,8.75
2022-09-06T02:10:58.164Z,10.30
2022-09-06T02:13:28.348Z,8.95
2022-09-06T02:16:01.083Z,8.13
2022-09-06T02:18:31.108Z,7.30
2022-09-06T02:20:59.767Z,9.90
2022-09-06T02:23:29.864Z,9.23
2022-09-06T02:26:00.441Z,8.00
2022-09-06T02:28:29.572Z,9.25
2022-09-06T02:31:00.596Z,10.85
2022-09-06T02:33:30.114Z,8.25
2022-09-06T02:35:58.045Z,8.43
2022-09-06T02:38:28.039Z,8.40
2022-09-06T02:40:57.077Z,11.20
2022-09-06T02:43:24.735Z,9.05
2022-09-06T02:45:53.986Z,11.50
2022-09-06T02:48:22.186Z,10.93
2022-09-06T02:50:49.990Z,9.73
2022-09-06T02:53:18.051Z,10.88
2022-09-06T02:55:47.247Z,9.82
2022-09-06T02:58:15.260Z,10.38
2022-09-06T03:00:44.033Z,11.85
2022-09-06T03:03:13.228Z,9.93
2022-09-06T03:05:40.888Z,9.20
2022-09-06T03:08:08.695Z,11.48
2022-09-06T03:10:36.376Z,10.90
2022-09-06T03:13:04.394Z,12.95
2022-09-06T03:15:32.115Z,10.90
2022-09-06T03:18:00.233Z,11.57
2022-09-06T03:20:31.829Z,10.07
2022-09-06T03:23:01.565Z,17.13
2022-09-06T03:25:29.370Z,13.15
2022-09-06T03:27:57.084Z,12.23
2022-09-06T03:30:24.834Z,11.20
2022-09-06T03:32:52.597Z,13.02
2022-09-06T03:35:20.254Z,13.05
2022-09-06T03:37:49.277Z,11.27
2022-09-06T03:40:16.981Z,13.77
2022-09-06T03:42:44.617Z,12.88
2022-09-06T03:45:12.320Z,11.07
2022-09-06T03:47:40.146Z,10.20
2022-09-06T03:50:08.638Z,11.43
2022-09-06T03:52:36.311Z,13.05
2022-09-06T03:55:06.923Z,13.45
2022-09-06T03:57:34.775Z,13.25
2022-09-06T04:00:02.423Z,13.52
2022-09-06T04:02:30.121Z,16.13
2022-09-06T04:04:57.790Z,14.25
2022-09-06T04:07:25.943Z,11.00
2022-09-06T04:09:53.661Z,12.75
2022-09-06T04:12:27.090Z,14.30
2022-09-06T04:14:57.690Z,14.55
2022-09-06T04:17:25.366Z,15.07
2022-09-06T04:19:53.033Z,13.25
2022-09-06T04:22:20.672Z,13.77
2022-09-06T04:24:48.337Z,13.85
2022-09-06T04:27:15.978Z,14.40
2022-09-06T04:29:45.281Z,15.80
2022-09-06T04:32:13.045Z,12.07
2022-09-06T04:34:40.889Z,14.65
2022-09-06T04:37:08.658Z,15.40
2022-09-06T04:39:36.697Z,17.70
2022-09-06T04:42:04.513Z,13.65
2022-09-06T04:44:32.209Z,13.57
2022-09-06T04:47:09.895Z,12.40
2022-09-06T04:49:37.557Z,12.00
2022-09-06T04:52:05.255Z,19.27
2022-09-06T04:54:32.908Z,17.15
2022-09-06T04:57:00.582Z,16.23
2022-09-06T04:59:28.209Z,14.75
2022-09-06T05:01:55.882Z,20.50
2022-09-06T05:04:25.445Z,18.27
2022-09-06T05:07:00.521Z,15.07
2022-09-06T05:09:28.186Z,16.33
2022-09-06T05:11:56.213Z,16.08
2022-09-06T05:14:24.046Z,19.05
2022-09-06T05:16:51.857Z,17.65
2022-09-06T05:19:19.997Z,17.02
2022-09-06T05:21:49.029Z,16.77
2022-09-06T05:24:19.214Z,18.92
2022-09-06T05:26:47.294Z,14.30
2022-09-06T05:29:15.074Z,17.88
2022-09-06T05:31:42.902Z,14.57
2022-09-06T05:34:13.453Z,17.05
2022-09-06T05:36:42.120Z,16.77
2022-09-06T05:39:11.150Z,16.52
2022-09-06T05:41:39.375Z,17.65
2022-09-06T05:44:07.050Z,16.05
2022-09-06T05:46:34.737Z,16.92
2022-09-06T05:49:07.860Z,17.38
2022-09-06T05:51:35.574Z,16.63
2022-09-06T05:54:03.324Z,13.43
2022-09-06T05:56:32.686Z,15.13
2022-09-06T05:59:00.816Z,13.15
2022-09-06T06:01:32.386Z,17.17
2022-09-06T06:04:00.936Z,13.07
2022-09-06T06:06:29.776Z,9.35
2022-09-06T06:08:57.537Z,10.45
2022-09-06T06:11:25.974Z,19.38
2022-09-06T06:13:55.209Z,10.85
2022-09-06T06:16:23.410Z,8.80
2022-09-06T06:18:52.547Z,7.78
2022-09-06T06:21:21.394Z,13.48
2022-09-06T06:23:51.293Z,15.45
2022-09-06T06:26:19.045Z,8.95
2022-09-06T06:28:46.784Z,9.13
2022-09-06T06:31:15.900Z,6.78
2022-09-06T06:33:44.432Z,6.35
2022-09-06T06:36:20.708Z,6.65
2022-09-06T06:38:48.783Z,6.28
2022-09-06T06:41:17.248Z,5.88
2022-09-06T06:43:44.965Z,8.27
2022-09-06T06:46:14.087Z,5.70
2022-09-06T06:48:43.816Z,5.53
2022-09-06T06:51:11.972Z,3.20
2022-09-06T06:53:40.023Z,3.83
2022-09-06T06:56:14.633Z,6.10
2022-09-06T06:58:42.422Z,4.70
2022-09-06T07:01:11.320Z,3.75
2022-09-06T07:03:39.220Z,3.72
2022-09-06T07:06:17.763Z,4.63
2022-09-06T07:08:46.223Z,4.43
2022-09-06T07:11:14.916Z,4.13
2022-09-06T07:13:42.725Z,4.72
2022-09-06T07:16:11.293Z,4.57
2022-09-06T07:18:42.487Z,5.43
2022-09-06T07:26:36.364Z,6.55
2022-09-06T07:29:04.971Z,4.35
2022-09-06T07:34:21.062Z,3.53
2022-09-06T07:36:49.395Z,4.60
2022-09-06T07:39:18.419Z,4.15
2022-09-06T07:41:46.633Z,3.28
2022-09-06T07:44:14.358Z,3.90
2022-09-06T07:46:45.261Z,5.20
2022-09-06T07:49:13.166Z,3.55
2022-09-06T07:51:40.933Z,2.50
2022-09-06T07:56:58.009Z,3.78
2022-09-06T07:59:25.763Z,6.03
2022-09-06T08:01:54.339Z,3.17
2022-09-06T08:04:22.051Z,6.35
2022-09-06T08:09:40.295Z,2.95
2022-09-06T08:12:09.687Z,2.78
2022-09-06T08:14:37.574Z,4.15
2022-09-06T08:17:05.529Z,6.03
2022-09-06T08:19:34.474Z,4.05
2022-09-06T08:22:02.452Z,5.60
2022-09-06T08:24:30.491Z,3.60
2022-09-06T08:26:58.218Z,3.38
2022-09-06T08:29:31.357Z,5.75
2022-09-06T08:31:59.093Z,5.60
2022-09-06T08:34:27.258Z,6.05
2022-09-06T08:36:54.919Z,6.93
2022-09-06T08:39:22.782Z,10.60
2022-09-06T08:41:53.332Z,3.35
2022-09-06T08:47:15.523Z,2.83
2022-09-06T08:49:49.889Z,3.00
2022-09-06T08:52:35.521Z,4.00
2022-09-06T08:55:12.881Z,3.00
2022-09-06T08:57:46.174Z,4.55
2022-09-06T09:00:15.248Z,4.03
2022-09-06T09:02:46.883Z,3.17
2022-09-06T09:05:23.923Z,6.53
2022-09-06T09:07:55.288Z,3.70
2022-09-06T09:10:26.440Z,2.85
2022-09-06T09:12:54.559Z,3.35
2022-09-06T09:15:22.657Z,3.33
2022-09-06T09:17:52.720Z,4.43
2022-09-06T09:20:21.125Z,5.00
2022-09-06T09:22:49.903Z,5.00
2022-09-06T09:25:20.645Z,5.25
2022-09-06T09:27:50.375Z,6.28
2022-09-06T09:33:21.929Z,4.43
2022-09-06T09:35:49.792Z,2.55
2022-09-06T09:38:21.540Z,3.33
2022-09-06T09:40:53.270Z,2.92
2022-09-06T09:43:23.133Z,10.63
2022-09-06T09:46:11.037Z,2.70
2022-09-06T09:48:40.644Z,3.03
2022-09-06T09:51:25.553Z,3.42
2022-09-06T09:53:54.928Z,5.65
2022-09-06T09:56:35.430Z,4.80
2022-09-06T09:59:04.581Z,3.50
2022-09-06T10:01:34.891Z,3.40
2022-09-06T10:09:40.967Z,2.75
2022-09-06T10:12:08.760Z,3.45
2022-09-06T10:14:42.824Z,3.88
2022-09-06T10:17:18.980Z,2.63
2022-09-06T10:19:48.942Z,2.75
2022-09-06T10:22:37.570Z,3.92
2022-09-06T10:25:18.823Z,3.95
2022-09-06T10:28:10.548Z,2.40
2022-09-06T10:30:42.354Z,3.65
2022-09-06T10:33:20.990Z,2.50
2022-09-06T10:35:49.984Z,5.00
2022-09-06T10:38:26.828Z,1.63
2022-09-06T10:40:59.062Z,1.88
2022-09-06T10:46:36.091Z,2.90
2022-09-06T10:49:04.291Z,2.55
2022-09-06T10:51:38.516Z,4.18
2022-09-06T10:54:09.613Z,5.95
2022-09-06T10:56:41.017Z,2.25
2022-09-06T11:02:08.524Z,2.78
2022-09-06T11:07:39.434Z,5.90
2022-09-06T11:10:12.325Z,4.32
2022-09-06T11:12:42.574Z,3.95
2022-09-06T11:15:13.244Z,1.83
2022-09-06T11:17:44.130Z,1.70
2022-09-06T11:20:14.771Z,1.52
2022-09-06T11:23:00.180Z,3.38
2022-09-06T11:25:43.690Z,2.58
2022-09-06T11:28:14.532Z,2.53
2022-09-06T11:30:45.089Z,2.05
2022-09-06T11:33:19.551Z,2.33
2022-09-06T11:35:47.461Z,2.30
2022-09-06T11:38:21.939Z,1.38
2022-09-06T11:40:55.440Z,4.20
2022-09-06T11:43:37.993Z,1.27
2022-09-06T11:46:05.772Z,3.90
2022-09-06T11:48:40.601Z,4.13
2022-09-06T11:51:10.988Z,3.78
2022-09-06T11:53:53.625Z,3.17
2022-09-06T11:56:28.785Z,2.35
2022-09-06T11:58:58.626Z,2.50
2022-09-06T12:01:38.703Z,3.17
2022-09-06T12:04:09.480Z,4.50
2022-09-06T12:06:40.904Z,2.83
2022-09-06T12:09:27.727Z,4.57
2022-09-06T12:11:57.828Z,5.80
2022-09-06T12:14:31.019Z,5.07
2022-09-06T12:17:28.814Z,4.18
2022-09-06T12:20:06.409Z,3.80
2022-09-06T12:22:53.501Z,3.40
2022-09-06T12:25:41.757Z,2.50
2022-09-06T12:28:13.523Z,3.22
2022-09-06T12:30:42.409Z,1.73
2022-09-06T12:33:14.791Z,4.60
2022-09-06T12:35:59.296Z,3.63
2022-09-06T12:38:28.557Z,4.85
2022-09-06T12:40:59.107Z,3.17
2022-09-06T12:43:28.423Z,5.53
2022-09-06T12:45:56.272Z,4.38
2022-09-06T12:48:28.218Z,5.72
2022-09-06T12:51:02.341Z,2.08
2022-09-06T12:53:31.684Z,4.53
2022-09-06T12:56:06.601Z,2.90
2022-09-06T12:58:37.089Z,2.55
2022-09-06T13:01:08.600Z,4.75
2022-09-06T13:03:37.906Z,3.00
2022-09-06T13:06:06.644Z,2.30
2022-09-06T13:08:36.043Z,3.47
2022-09-06T13:11:04.832Z,3.38
2022-09-06T13:13:32.605Z,6.78
2022-09-06T13:16:01.931Z,3.13
2022-09-06T13:18:33.674Z,4.65
2022-09-06T13:21:02.525Z,2.28
2022-09-06T13:23:31.609Z,2.85
2022-09-06T13:26:00.349Z,2.55
2022-09-06T13:28:29.172Z,3.35
2022-09-06T13:31:06.435Z,2.70
2022-09-06T13:33:34.148Z,2.25
2022-09-06T13:39:35.014Z,1.52
2022-09-06T13:42:03.647Z,4.53
2022-09-06T13:44:32.000Z,2.80
2022-09-06T13:50:27.806Z,3.75
2022-09-06T13:52:55.946Z,3.92
2022-09-06T13:55:24.731Z,2.60
2022-09-06T13:57:52.383Z,2.60
2022-09-06T14:00:20.304Z,2.13
2022-09-06T14:02:48.997Z,6.05
2022-09-06T14:05:17.956Z,1.33
2022-09-06T14:07:47.130Z,2.08
2022-09-06T14:10:15.099Z,2.10
2022-09-06T14:12:42.792Z,3.22
2022-09-06T14:15:10.717Z,3.30
2022-09-06T14:17:39.331Z,2.35
2022-09-06T14:20:07.569Z,5.10
2022-09-06T14:22:35.309Z,2.10
2022-09-06T14:25:04.764Z,3.47
2022-09-06T14:27:32.859Z,7.65
2022-09-06T14:30:00.593Z,2.85
2022-09-06T14:32:28.270Z,6.03
2022-09-06T14:34:55.893Z,3.20
2022-09-06T14:37:23.588Z,5.78
2022-09-06T14:39:51.934Z,2.92
2022-09-06T14:42:24.541Z,2.20
2022-09-06T14:44:52.143Z,1.65
2022-09-06T14:47:19.859Z,3.85
2022-09-06T14:49:47.482Z,2.33
2022-09-06T14:52:15.139Z,3.78
2022-09-06T14:54:42.861Z,2.08
2022-09-06T14:57:10.546Z,7.68
2022-09-06T14:59:39.607Z,1.52
2022-09-06T15:02:07.298Z,1.58
2022-09-06T15:04:35.172Z,2.10
2022-09-06T15:07:03.313Z,2.13
2022-09-06T15:09:30.981Z,3.70
2022-09-06T15:11:58.684Z,2.65
2022-09-06T15:14:27.080Z,1.17
2022-09-06T15:16:58.117Z,2.58
2022-09-06T15:19:26.632Z,4.97
2022-09-06T15:21:54.294Z,2.75
2022-09-06T15:24:22.097Z,3.03
2022-09-06T15:26:53.208Z,3.78
2022-09-06T15:29:21.377Z,1.55
2022-09-06T15:31:50.508Z,1.42
2022-09-06T15:34:27.416Z,3.70
2022-09-06T15:36:56.636Z,2.55
2022-09-06T15:39:24.440Z,2.58
2022-09-06T15:41:52.737Z,3.10
2022-09-06T15:44:21.792Z,4.93
2022-09-06T15:46:50.705Z,2.22
2022-09-06T15:49:20.843Z,3.25
2022-09-06T15:51:52.290Z,0.93
2022-09-06T15:54:40.842Z,4.13
2022-09-06T15:57:08.730Z,1.52
2022-09-06T15:59:36.352Z,2.78
2022-09-06T16:02:04.093Z,4.22
2022-09-06T16:04:31.767Z,2.65
2022-09-06T16:07:00.782Z,2.13
2022-09-06T16:09:29.279Z,3.13
2022-09-06T16:11:56.940Z,3.00
2022-09-06T16:14:24.729Z,2.25
2022-09-06T16:16:54.844Z,2.53
2022-09-06T16:19:22.696Z,1.80
2022-09-06T16:21:50.464Z,2.58
2022-09-06T16:24:19.713Z,2.30
2022-09-06T16:26:48.174Z,3.50
2022-09-06T16:29:18.130Z,4.63
2022-09-06T16:31:46.644Z,2.58
2022-09-06T16:34:14.848Z,2.05
2022-09-06T16:36:42.547Z,2.35
2022-09-06T16:39:10.853Z,1.67
2022-09-06T16:41:41.118Z,2.97
2022-09-06T16:44:09.285Z,1.60
2022-09-06T16:46:40.064Z,4.32
2022-09-06T16:49:07.873Z,2.47
2022-09-06T16:51:35.701Z,3.15
2022-09-06T16:54:03.402Z,2.60
2022-09-06T16:56:34.765Z,1.38
2022-09-06T16:59:05.513Z,2.78
2022-09-06T17:01:34.287Z,2.75
2022-09-06T17:04:03.077Z,4.18
2022-09-06T17:06:32.735Z,2.35
2022-09-06T17:09:00.907Z,2.92
2022-09-06T17:11:29.328Z,2.88
2022-09-06T17:13:57.751Z,4.75
2022-09-06T17:16:44.798Z,1.05
2022-09-06T17:19:14.008Z,1.73
2022-09-06T17:21:42.043Z,3.70
2022-09-06T17:24:09.975Z,3.40
2022-09-06T17:26:39.196Z,2.05
2022-09-06T17:29:07.338Z,1.65
2022-09-06T17:31:36.967Z,2.25
2022-09-06T17:34:05.181Z,2.17
2022-09-06T17:36:33.465Z,4.63
2022-09-06T17:39:01.829Z,4.03
2022-09-06T17:41:31.049Z,4.15
2022-09-06T17:43:58.964Z,3.35
2022-09-06T17:46:30.077Z,2.25
2022-09-06T17:48:59.254Z,2.20
2022-09-06T17:51:26.954Z,2.08
2022-09-06T17:53:54.906Z,2.42
2022-09-06T17:56:22.787Z,0.95
2022-09-06T17:58:55.279Z,2.55
2022-09-06T18:01:23.970Z,2.65
2022-09-06T18:03:51.833Z,1.77
2022-09-06T18:06:22.878Z,1.48
2022-09-06T18:08:51.378Z,1.33
2022-09-06T18:11:20.245Z,2.20
2022-09-06T18:13:48.335Z,1.95
2022-09-06T18:16:16.013Z,3.17
2022-09-06T18:18:44.234Z,2.63
2022-09-06T18:21:11.942Z,3.05
2022-09-06T18:23:41.037Z,2.08
2022-09-06T18:26:09.176Z,4.68
2022-09-06T18:28:38.018Z,4.25
2022-09-06T18:31:06.721Z,2.95
2022-09-06T18:33:34.723Z,4.13
2022-09-06T18:36:02.740Z,4.35
2022-09-06T18:38:30.736Z,2.45
2022-09-06T18:41:00.559Z,5.80
2022-09-06T18:43:29.541Z,8.45
2022-09-06T18:46:01.654Z,4.95
2022-09-06T18:48:31.293Z,5.80
2022-09-06T18:50:59.929Z,4.93
2022-09-06T18:53:27.828Z,5.97
2022-09-06T18:55:55.484Z,3.85
2022-09-06T18:58:24.553Z,1.98
2022-09-06T19:00:52.667Z,2.08
2022-09-06T19:03:20.602Z,3.38
2022-09-06T19:05:48.367Z,3.72
2022-09-06T19:08:16.043Z,2.08
2022-09-06T19:10:43.864Z,3.13
2022-09-06T19:13:11.656Z,5.82
2022-09-06T19:15:43.287Z,3.38
2022-09-06T19:18:11.008Z,5.30
2022-09-06T19:20:38.646Z,3.50
2022-09-06T19:23:17.165Z,2.70
2022-09-06T19:25:45.017Z,5.07
2022-09-06T19:28:12.701Z,4.95
2022-09-06T19:30:41.813Z,4.90
2022-09-06T19:33:09.507Z,2.50
2022-09-06T19:35:43.766Z,4.22
2022-09-06T19:38:23.628Z,4.57
2022-09-06T19:40:51.291Z,4.78
2022-09-06T19:43:19.134Z,3.72
2022-09-06T19:45:48.366Z,3.33
2022-09-06T19:48:16.021Z,4.30
2022-09-06T19:50:44.532Z,2.72
2022-09-06T19:53:12.246Z,9.27
2022-09-06T19:55:39.914Z,4.60
2022-09-06T19:58:08.567Z,7.70
2022-09-06T20:00:40.806Z,2.83
2022-09-06T20:03:09.849Z,6.20
2022-09-06T20:05:37.975Z,2.53
2022-09-06T20:08:05.675Z,2.72
2022-09-06T20:10:33.348Z,3.20
2022-09-06T20:13:01.123Z,4.32
2022-09-06T20:15:29.194Z,2.00
2022-09-06T20:17:56.881Z,4.40
2022-09-06T20:20:25.968Z,6.53
2022-09-06T20:22:53.718Z,3.22
2022-09-06T20:25:21.648Z,2.58
2022-09-06T20:27:49.351Z,1.77
2022-09-06T20:30:17.431Z,2.72
2022-09-06T20:32:45.090Z,3.38
2022-09-06T20:35:12.786Z,3.08
2022-09-06T20:37:41.782Z,6.55
2022-09-06T20:40:09.891Z,2.60
2022-09-06T20:42:42.251Z,3.35
2022-09-06T20:45:10.399Z,2.65
2022-09-06T20:47:38.062Z,7.60
2022-09-06T20:50:06.113Z,8.45
2022-09-06T20:52:33.928Z,4.30
2022-09-06T20:55:02.975Z,7.28
2022-09-06T20:57:30.660Z,9.98
2022-09-06T20:59:58.320Z,6.18
2022-09-06T21:02:26.447Z,9.98
2022-09-06T21:04:54.770Z,6.78
2022-09-06T21:07:22.446Z,8.20
2022-09-06T21:09:50.118Z,5.88
2022-09-06T21:12:19.089Z,5.22
2022-09-06T21:14:47.073Z,6.70
2022-09-06T21:17:14.720Z,7.88
2022-09-06T21:19:42.370Z,3.33
2022-09-06T21:22:10.016Z,9.63
2022-09-06T21:24:40.335Z,5.95
2022-09-06T21:27:08.025Z,7.25
2022-09-06T21:29:37.024Z,9.10
2022-09-06T21:32:04.875Z,6.35
2022-09-06T21:34:32.577Z,6.95
2022-09-06T21:37:00.226Z,8.73
2022-09-06T21:39:27.989Z,5.63
2022-09-06T21:41:55.810Z,5.90
2022-09-06T21:44:23.533Z,6.78
2022-09-06T21:46:52.798Z,6.20
2022-09-06T21:49:20.471Z,8.43
2022-09-06T21:51:48.089Z,6.43
2022-09-06T21:54:15.935Z,8.45
2022-09-06T21:56:43.590Z,9.43
2022-09-06T21:59:11.558Z,7.22
2022-09-06T22:01:40.206Z,9.10
2022-09-06T22:04:09.586Z,9.95
2022-09-06T22:06:37.817Z,8.75
2022-09-06T22:09:07.704Z,9.15
2022-09-06T22:11:35.805Z,9.50
2022-09-06T22:14:05.238Z,6.97
2022-09-06T22:16:33.638Z,9.80
2022-09-06T22:19:01.668Z,7.90
2022-09-06T22:21:30.676Z,6.60
2022-09-06T22:23:59.545Z,7.65
2022-09-06T22:26:28.311Z,8.48
2022-09-06T22:28:56.432Z,9.82
2022-09-06T22:31:24.758Z,8.07
2022-09-06T22:33:52.435Z,8.32
2022-09-06T22:36:20.356Z,6.72
2022-09-06T22:38:53.019Z,6.00
2022-09-06T22:41:20.666Z,8.63
2022-09-06T22:43:48.334Z,12.73
2022-09-06T22:46:16.140Z,7.15
2022-09-06T22:48:43.842Z,8.80
2022-09-06T22:51:14.177Z,7.10
2022-09-06T22:53:41.875Z,8.25
2022-09-06T22:56:11.006Z,8.35
2022-09-06T22:58:38.717Z,8.23
2022-09-06T23:01:07.717Z,8.02
2022-09-06T23:03:36.195Z,7.00
2022-09-06T23:06:04.129Z,7.53
2022-09-06T23:08:32.015Z,7.38
2022-09-06T23:11:04.514Z,6.07
2022-09-06T23:13:33.626Z,7.32
2022-09-06T23:16:03.783Z,8.75
2022-09-06T23:18:31.503Z,6.28
2022-09-06T23:21:03.901Z,8.27
2022-09-06T23:23:31.803Z,8.90
2022-09-06T23:26:03.830Z,7.70
2022-09-06T23:28:31.628Z,7.35
2022-09-06T23:31:01.901Z,9.93
2022-09-06T23:33:29.632Z,7.53
2022-09-06T23:35:57.297Z,6.10
2022-09-06T23:38:25.042Z,7.32
2022-09-06T23:40:52.904Z,12.00
2022-09-06T23:43:20.572Z,10.45
2022-09-06T23:45:48.290Z,8.10
2022-09-06T23:48:17.315Z,6.40
2022-09-06T23:50:45.361Z,6.82
2022-09-06T23:53:13.175Z,7.45
2022-09-06T23:55:40.881Z,7.78
2022-09-06T23:58:08.615Z,7.93
